Time;durP1;ratioP1;P1;durP2;ratioP2;P2;SDS_P1;SDS_P2;PMS_P1;PMS_P2;Temp;Humidity;BMP_temperature;BMP_pressure;BME280_temperature;BME280_humidity;BME280_pressure;Samples;Min_cycle;Max_cycle;Signal;HPM_P1;HPM_P2
2023/12/31 00:00:24;;;;;;;7.05;3.28;;;;;;;;;;5119552;28;20252;-80
2023/12/31 00:02:49;;;;;;;5.90;3.20;;;;;;;;;;5119825;28;20125;-80
2023/12/31 00:05:15;;;;;;;5.93;2.80;;;;;;;;;;5119201;28;20038;-80
2023/12/31 00:07:40;;;;;;;7.35;3.55;;;;;;;;;;5104739;28;20284;-81
2023/12/31 00:10:08;;;;;;;5.95;3.05;;;;;;;;;;5098794;28;20035;-80
2023/12/31 00:12:33;;;;;;;6.70;3.20;;;;;;;;;;5099422;28;20032;-79
2023/12/31 00:14:58;;;;;;;7.83;3.10;;;;;;;;;;5097923;28;20051;-80
2023/12/31 00:17:24;;;;;;;6.78;2.92;;;;;;;;;;5098406;28;20277;-80
2023/12/31 00:19:49;;;;;;;7.23;3.00;;;;;;;;;;5080642;28;20039;-80
2023/12/31 00:22:14;;;;;;;6.63;3.08;;;;;;;;;;5098901;28;20264;-80
2023/12/31 00:24:39;;;;;;;5.65;3.10;;;;;;;;;;5098406;28;20064;-80
2023/12/31 00:27:05;;;;;;;10.45;2.88;;;;;;;;;;5097967;28;20073;-80
2023/12/31 00:29:30;;;;;;;8.37;2.83;;;;;;;;;;5097710;28;20487;-80
2023/12/31 00:31:55;;;;;;;6.23;2.90;;;;;;;;;;5098157;28;20264;-80
2023/12/31 00:34:20;;;;;;;8.57;2.77;;;;;;;;;;5098695;28;20272;-79
2023/12/31 00:36:45;;;;;;;5.50;3.03;;;;;;;;;;5097750;28;20252;-80
2023/12/31 00:39:11;;;;;;;6.35;2.83;;;;;;;;;;5079727;28;20095;-79
2023/12/31 00:41:36;;;;;;;7.15;2.97;;;;;;;;;;5079775;28;20066;-80
2023/12/31 00:44:02;;;;;;;10.57;3.03;;;;;;;;;;5097588;28;20483;-80
2023/12/31 00:46:27;;;;;;;7.40;3.00;;;;;;;;;;5097715;28;20020;-80
2023/12/31 00:48:52;;;;;;;7.20;3.30;;;;;;;;;;5097727;28;20036;-82
2023/12/31 00:51:17;;;;;;;8.57;2.80;;;;;;;;;;5098026;28;20260;-80
2023/12/31 00:53:43;;;;;;;9.47;2.93;;;;;;;;;;5098517;28;20263;-81
2023/12/31 00:56:08;;;;;;;7.65;3.10;;;;;;;;;;5079386;28;20265;-80
2023/12/31 00:58:33;;;;;;;7.15;3.03;;;;;;;;;;5096933;28;20028;-80
2023/12/31 01:00:59;;;;;;;6.77;2.80;;;;;;;;;;5097659;28;20114;-80
2023/12/31 01:03:24;;;;;;;6.25;2.85;;;;;;;;;;5079332;28;20284;-80
2023/12/31 01:05:49;;;;;;;7.90;3.10;;;;;;;;;;5079555;28;20024;-80
2023/12/31 01:08:14;;;;;;;5.23;2.87;;;;;;;;;;5079407;28;20032;-80
2023/12/31 01:10:39;;;;;;;7.05;2.65;;;;;;;;;;5097877;28;20268;-80
2023/12/31 01:13:05;;;;;;;5.28;2.40;;;;;;;;;;5097585;28;20099;-80
2023/12/31 01:15:30;;;;;;;4.83;2.40;;;;;;;;;;5097814;28;20020;-80
2023/12/31 01:17:55;;;;;;;7.53;2.90;;;;;;;;;;5097534;28;20726;-80
2023/12/31 01:20:20;;;;;;;7.93;2.93;;;;;;;;;;5097422;28;20253;-80
2023/12/31 01:22:46;;;;;;;10.18;2.72;;;;;;;;;;5097220;28;20763;-80
2023/12/31 01:25:11;;;;;;;6.47;3.10;;;;;;;;;;5097547;28;20024;-80
2023/12/31 01:27:36;;;;;;;6.85;2.83;;;;;;;;;;5097093;28;20290;-80
2023/12/31 01:30:02;;;;;;;6.25;3.10;;;;;;;;;;5096840;28;20047;-80
2023/12/31 01:32:27;;;;;;;7.10;2.65;;;;;;;;;;5097134;28;20399;-80
2023/12/31 01:34:56;;;;;;;6.03;2.60;;;;;;;;;;5110605;28;20083;-79
2023/12/31 01:37:21;;;;;;;6.72;2.63;;;;;;;;;;5112581;28;20016;-78
2023/12/31 01:39:46;;;;;;;7.07;2.43;;;;;;;;;;5105303;28;20042;-80
2023/12/31 01:42:12;;;;;;;5.80;2.90;;;;;;;;;;5079482;28;20260;-81
2023/12/31 01:44:37;;;;;;;5.10;2.40;;;;;;;;;;5078533;28;20024;-80
2023/12/31 01:47:03;;;;;;;4.50;2.30;;;;;;;;;;5096849;28;20031;-80
2023/12/31 01:49:30;;;;;;;5.75;2.38;;;;;;;;;;5096808;28;20248;-80
2023/12/31 01:51:56;;;;;;;7.53;3.08;;;;;;;;;;5096754;28;20495;-80
2023/12/31 01:54:21;;;;;;;6.22;2.72;;;;;;;;;;5096745;28;20063;-80
2023/12/31 01:56:50;;;;;;;6.60;2.53;;;;;;;;;;5079014;28;20020;-80
2023/12/31 01:59:16;;;;;;;5.72;2.72;;;;;;;;;;5097085;28;20072;-80
2023/12/31 02:01:41;;;;;;;8.20;2.78;;;;;;;;;;5079416;28;20098;-80
2023/12/31 02:04:07;;;;;;;7.15;2.80;;;;;;;;;;5097002;28;20077;-80
2023/12/31 02:06:32;;;;;;;5.93;2.38;;;;;;;;;;5097089;28;20027;-79
2023/12/31 02:08:58;;;;;;;3.63;2.28;;;;;;;;;;5097552;28;20078;-80
2023/12/31 02:11:23;;;;;;;6.20;2.50;;;;;;;;;;5096973;28;20028;-80
2023/12/31 02:13:48;;;;;;;10.07;3.08;;;;;;;;;;5095649;28;20032;-80
2023/12/31 02:16:15;;;;;;;4.60;2.50;;;;;;;;;;5094076;28;20447;-80
2023/12/31 02:18:40;;;;;;;5.72;2.92;;;;;;;;;;5094192;28;20107;-80
2023/12/31 02:21:06;;;;;;;7.93;2.80;;;;;;;;;;5094702;28;20127;-80
2023/12/31 02:23:32;;;;;;;8.50;2.78;;;;;;;;;;5095040;28;20110;-80
2023/12/31 02:26:06;;;;;;;6.53;2.75;;;;;;;;;;5095495;28;20035;-80
2023/12/31 02:28:31;;;;;;;;;;;;;;;;;;5078601;28;20031;-80
2023/12/31 02:30:56;;;;;;;7.30;2.63;;;;;;;;;;5078010;28;19912;-80
2023/12/31 02:33:21;;;;;;;8.87;2.70;;;;;;;;;;5096401;28;20169;-80
2023/12/31 02:35:47;;;;;;;7.60;3.00;;;;;;;;;;5096814;28;20302;-80
2023/12/31 02:38:12;;;;;;;6.10;3.00;;;;;;;;;;5099700;28;20073;-80
2023/12/31 02:40:37;;;;;;;8.40;3.40;;;;;;;;;;5100140;28;20110;-80
2023/12/31 02:43:03;;;;;;;11.63;3.33;;;;;;;;;;5100384;28;20628;-79
2023/12/31 02:45:28;;;;;;;9.38;3.20;;;;;;;;;;5101125;28;20773;-80
2023/12/31 02:47:53;;;;;;;7.95;2.88;;;;;;;;;;5082163;28;20500;-80
2023/12/31 02:50:18;;;;;;;9.82;2.85;;;;;;;;;;5100762;28;20415;-80
2023/12/31 02:52:43;;;;;;;7.13;3.27;;;;;;;;;;5100369;28;20089;-80
2023/12/31 02:55:09;;;;;;;7.13;3.30;;;;;;;;;;5101006;28;20248;-80
2023/12/31 02:57:34;;;;;;;4.63;2.63;;;;;;;;;;5100352;28;20031;-80
2023/12/31 02:59:59;;;;;;;10.50;3.10;;;;;;;;;;5100476;28;20256;-80
2023/12/31 03:02:24;;;;;;;5.70;3.00;;;;;;;;;;5100650;28;20024;-80
2023/12/31 03:04:50;;;;;;;7.47;3.10;;;;;;;;;;5100287;28;20664;-80
2023/12/31 03:07:15;;;;;;;7.05;2.83;;;;;;;;;;5099903;28;20701;-80
2023/12/31 03:09:41;;;;;;;5.68;2.75;;;;;;;;;;5099529;28;20055;-81
2023/12/31 03:12:06;;;;;;;8.33;3.23;;;;;;;;;;5099385;28;20073;-80
2023/12/31 03:14:31;;;;;;;6.03;2.78;;;;;;;;;;5099939;28;20256;-80
2023/12/31 03:16:57;;;;;;;7.27;2.50;;;;;;;;;;5099933;28;20031;-79
2023/12/31 03:19:23;;;;;;;6.10;2.60;;;;;;;;;;5081347;28;20260;-80
2023/12/31 03:21:48;;;;;;;6.75;2.70;;;;;;;;;;5100135;28;20024;-80
2023/12/31 03:24:13;;;;;;;6.00;2.70;;;;;;;;;;5081689;28;20020;-79
2023/12/31 03:26:38;;;;;;;6.70;2.25;;;;;;;;;;5099384;28;20065;-79
2023/12/31 03:29:04;;;;;;;4.50;2.47;;;;;;;;;;5081846;28;20028;-79
2023/12/31 03:31:29;;;;;;;9.13;2.53;;;;;;;;;;5080772;28;20263;-78
2023/12/31 03:33:54;;;;;;;6.78;2.53;;;;;;;;;;5099735;28;20031;-80
2023/12/31 03:36:24;;;;;;;6.18;2.20;;;;;;;;;;5099763;28;20020;-80
2023/12/31 03:38:49;;;;;;;9.57;2.60;;;;;;;;;;5099251;28;20089;-80
2023/12/31 03:41:14;;;;;;;5.97;2.33;;;;;;;;;;5098907;28;20035;-80
2023/12/31 03:43:40;;;;;;;4.00;2.33;;;;;;;;;;5099191;28;20028;-80
2023/12/31 03:46:05;;;;;;;9.67;2.90;;;;;;;;;;5099149;28;20325;-79
2023/12/31 03:48:30;;;;;;;7.63;2.47;;;;;;;;;;5097796;28;20261;-80
2023/12/31 03:50:55;;;;;;;6.57;2.50;;;;;;;;;;5099914;28;20036;-81
2023/12/31 03:53:21;;;;;;;7.70;2.65;;;;;;;;;;5098995;28;20087;-80
2023/12/31 03:55:46;;;;;;;4.70;2.43;;;;;;;;;;5080920;28;20023;-79
2023/12/31 03:58:11;;;;;;;6.53;2.53;;;;;;;;;;5099318;28;20283;-79
2023/12/31 04:00:36;;;;;;;8.88;3.00;;;;;;;;;;5099451;28;20260;-80
2023/12/31 04:03:03;;;;;;;8.27;2.88;;;;;;;;;;5099046;28;20027;-80
2023/12/31 04:05:28;;;;;;;4.47;2.42;;;;;;;;;;5098665;28;20035;-79
2023/12/31 04:07:53;;;;;;;5.72;2.70;;;;;;;;;;5080237;28;20019;-78
2023/12/31 04:10:18;;;;;;;6.93;3.00;;;;;;;;;;5098818;28;20028;-79
2023/12/31 04:12:44;;;;;;;7.57;2.53;;;;;;;;;;5099218;28;20267;-79
2023/12/31 04:15:09;;;;;;;5.37;2.70;;;;;;;;;;5098394;28;20028;-80
2023/12/31 04:17:35;;;;;;;6.18;2.40;;;;;;;;;;5098803;28;20265;-79
2023/12/31 04:20:00;;;;;;;5.32;2.42;;;;;;;;;;5098443;28;20032;-79
2023/12/31 04:22:25;;;;;;;4.32;2.28;;;;;;;;;;5081011;28;20027;-79
2023/12/31 04:24:50;;;;;;;5.38;2.42;;;;;;;;;;5098405;28;20031;-80
2023/12/31 04:27:16;;;;;;;5.38;2.53;;;;;;;;;;5098691;28;20135;-79
2023/12/31 04:29:41;;;;;;;8.90;3.10;;;;;;;;;;5098401;28;20036;-80
2023/12/31 04:32:06;;;;;;;3.80;2.28;;;;;;;;;;5097875;28;20279;-80
2023/12/31 04:34:32;;;;;;;8.15;2.97;;;;;;;;;;5098718;28;20027;-80
2023/12/31 04:36:57;;;;;;;4.38;2.38;;;;;;;;;;5098257;28;20016;-79
2023/12/31 04:39:24;;;;;;;6.87;2.60;;;;;;;;;;5098040;28;20498;-80
2023/12/31 04:41:49;;;;;;;7.97;2.78;;;;;;;;;;5097910;28;20268;-79
2023/12/31 04:44:14;;;;;;;5.30;2.60;;;;;;;;;;5098491;28;20087;-80
2023/12/31 04:46:40;;;;;;;4.73;2.43;;;;;;;;;;5098296;28;20398;-80
2023/12/31 04:49:05;;;;;;;7.40;2.60;;;;;;;;;;5099218;28;20661;-79
2023/12/31 04:51:30;;;;;;;11.48;2.80;;;;;;;;;;5111089;28;20063;-79
2023/12/31 04:53:56;;;;;;;5.30;2.40;;;;;;;;;;5112044;28;20024;-79
2023/12/31 04:56:23;;;;;;;4.70;2.40;;;;;;;;;;5102796;28;20020;-80
2023/12/31 04:58:50;;;;;;;7.82;2.72;;;;;;;;;;5098098;28;20024;-80
2023/12/31 05:01:15;;;;;;;5.03;2.67;;;;;;;;;;5079744;28;20063;-80
2023/12/31 05:03:40;;;;;;;6.28;2.72;;;;;;;;;;5098016;28;20027;-81
2023/12/31 05:06:06;;;;;;;6.60;2.30;;;;;;;;;;5098415;28;20483;-79
2023/12/31 05:08:31;;;;;;;5.43;2.50;;;;;;;;;;5097642;28;20692;-80
2023/12/31 05:10:57;;;;;;;6.38;3.05;;;;;;;;;;5078984;28;20032;-80
2023/12/31 05:13:22;;;;;;;7.07;2.93;;;;;;;;;;5097312;28;20024;-80
2023/12/31 05:15:47;;;;;;;5.40;2.33;;;;;;;;;;5097949;28;20271;-78
2023/12/31 05:18:12;;;;;;;5.73;3.03;;;;;;;;;;5079260;28;20264;-80
2023/12/31 05:20:37;;;;;;;4.90;2.30;;;;;;;;;;5097284;28;20349;-80
2023/12/31 05:23:03;;;;;;;4.00;2.10;;;;;;;;;;5079145;28;20644;-80
2023/12/31 05:25:28;;;;;;;5.07;2.20;;;;;;;;;;5079350;28;20624;-80
2023/12/31 05:27:53;;;;;;;5.78;2.10;;;;;;;;;;5097746;28;20494;-79
2023/12/31 05:30:19;;;;;;;7.63;2.30;;;;;;;;;;5097763;28;20491;-80
2023/12/31 05:32:45;;;;;;;4.75;2.25;;;;;;;;;;5097122;28;20655;-81
2023/12/31 05:35:10;;;;;;;5.07;2.17;;;;;;;;;;5097474;28;20110;-80
2023/12/31 05:37:35;;;;;;;6.28;2.25;;;;;;;;;;5097007;28;20280;-80
2023/12/31 05:40:00;;;;;;;4.23;2.07;;;;;;;;;;5096976;28;20062;-80
2023/12/31 05:42:27;;;;;;;7.28;2.30;;;;;;;;;;5079166;28;20265;-79
2023/12/31 05:44:52;;;;;;;5.05;2.40;;;;;;;;;;5097458;28;20042;-80
2023/12/31 05:47:18;;;;;;;5.50;2.03;;;;;;;;;;5097260;28;20480;-80
2023/12/31 05:49:43;;;;;;;5.82;2.38;;;;;;;;;;5078769;28;20483;-81
2023/12/31 05:52:08;;;;;;;5.43;2.53;;;;;;;;;;5097203;28;20099;-80
2023/12/31 05:54:36;;;;;;;8.35;2.80;;;;;;;;;;5097095;28;20243;-80
2023/12/31 05:57:02;;;;;;;4.18;2.20;;;;;;;;;;5096957;28;20027;-78
2023/12/31 05:59:27;;;;;;;5.70;2.17;;;;;;;;;;5096680;28;20031;-80
2023/12/31 06:01:52;;;;;;;6.25;1.80;;;;;;;;;;5096805;28;20024;-80
2023/12/31 06:04:17;;;;;;;5.03;2.03;;;;;;;;;;5096820;28;20111;-81
2023/12/31 06:06:43;;;;;;;4.25;2.15;;;;;;;;;;5093578;28;20304;-80
2023/12/31 06:09:08;;;;;;;6.90;2.20;;;;;;;;;;5093372;28;20440;-80
2023/12/31 06:11:33;;;;;;;5.03;2.30;;;;;;;;;;5093304;28;20670;-80
2023/12/31 06:14:00;;;;;;;1.67;1.13;;;;;;;;;;5094421;28;20731;-80
2023/12/31 06:16:26;;;;;;;3.90;1.90;;;;;;;;;;5074952;28;20256;-79
2023/12/31 06:18:51;;;;;;;3.58;1.88;;;;;;;;;;5093859;28;20085;-80
2023/12/31 06:21:16;;;;;;;4.70;2.20;;;;;;;;;;5094060;28;20066;-79
2023/12/31 06:23:41;;;;;;;6.40;2.10;;;;;;;;;;5093576;28;20268;-80
2023/12/31 06:26:07;;;;;;;4.82;2.53;;;;;;;;;;5093272;28;20284;-80
2023/12/31 06:28:32;;;;;;;4.30;2.40;;;;;;;;;;5093901;28;20119;-80
2023/12/31 06:30:57;;;;;;;5.90;2.47;;;;;;;;;;5094559;28;20291;-80
2023/12/31 06:33:24;;;;;;;8.13;2.80;;;;;;;;;;5076836;28;20031;-79
2023/12/31 06:35:49;;;;;;;6.20;2.55;;;;;;;;;;5077293;28;20597;-80
2023/12/31 06:38:14;;;;;;;6.60;2.60;;;;;;;;;;5095117;28;20059;-80
2023/12/31 06:40:39;;;;;;;5.47;2.77;;;;;;;;;;5095392;28;20031;-81
2023/12/31 06:43:04;;;;;;;6.67;3.17;;;;;;;;;;5095395;28;20256;-80
2023/12/31 06:45:30;;;;;;;7.97;2.67;;;;;;;;;;5077409;28;20294;-80
2023/12/31 06:47:55;;;;;;;4.23;2.43;;;;;;;;;;5095268;28;20252;-80
2023/12/31 06:50:20;;;;;;;4.82;2.70;;;;;;;;;;5096003;28;20255;-80
2023/12/31 06:52:46;;;;;;;6.57;2.30;;;;;;;;;;5095555;28;20363;-80
2023/12/31 06:55:11;;;;;;;5.85;2.90;;;;;;;;;;5096123;28;20024;-79
2023/12/31 06:57:37;;;;;;;6.07;2.95;;;;;;;;;;5078145;28;20024;-80
2023/12/31 07:00:02;;;;;;;6.27;2.83;;;;;;;;;;5078407;28;20024;-80
2023/12/31 07:02:28;;;;;;;7.40;3.10;;;;;;;;;;5078300;28;20268;-80
2023/12/31 07:04:53;;;;;;;7.93;3.00;;;;;;;;;;5096283;28;20020;-80
2023/12/31 07:07:19;;;;;;;5.43;2.73;;;;;;;;;;5096100;28;20303;-80
2023/12/31 07:09:44;;;;;;;4.60;2.58;;;;;;;;;;5095816;28;20253;-80
2023/12/31 07:12:09;;;;;;;4.73;2.20;;;;;;;;;;5078051;28;20024;-80
2023/12/31 07:14:35;;;;;;;7.77;2.43;;;;;;;;;;5077830;28;20264;-80
2023/12/31 07:17:00;;;;;;;8.13;2.75;;;;;;;;;;5096284;28;20249;-80
2023/12/31 07:19:25;;;;;;;6.00;2.37;;;;;;;;;;5095741;28;20020;-80
2023/12/31 07:21:51;;;;;;;3.83;2.33;;;;;;;;;;5078080;28;20322;-80
2023/12/31 07:24:16;;;;;;;6.18;2.75;;;;;;;;;;5081327;28;20264;-80
2023/12/31 07:26:41;;;;;;;3.30;2.20;;;;;;;;;;5081633;28;20043;-80
2023/12/31 07:29:06;;;;;;;5.10;2.10;;;;;;;;;;5099647;28;20276;-80
2023/12/31 07:31:35;;;;;;;4.55;2.42;;;;;;;;;;5099753;28;20275;-80
2023/12/31 07:34:00;;;;;;;3.35;2.22;;;;;;;;;;5081436;28;20046;-80
2023/12/31 07:36:26;;;;;;;6.60;2.33;;;;;;;;;;5099285;28;20024;-80
2023/12/31 07:38:51;;;;;;;3.63;2.35;;;;;;;;;;5100195;28;20257;-80
2023/12/31 07:41:16;;;;;;;7.57;2.50;;;;;;;;;;5099198;28;20034;-80
2023/12/31 07:43:42;;;;;;;4.38;2.47;;;;;;;;;;5081070;28;20336;-80
2023/12/31 07:46:09;;;;;;;6.13;2.38;;;;;;;;;;5080840;28;20024;-80
2023/12/31 07:48:34;;;;;;;5.53;2.50;;;;;;;;;;5099383;28;20023;-80
2023/12/31 07:51:03;;;;;;;4.90;2.60;;;;;;;;;;5099497;28;20023;-80
2023/12/31 07:53:28;;;;;;;4.68;2.42;;;;;;;;;;5099042;28;20024;-80
2023/12/31 07:55:54;;;;;;;5.72;2.60;;;;;;;;;;5099515;28;20391;-80
2023/12/31 07:58:24;;;;;;;5.75;2.50;;;;;;;;;;5080645;28;20032;-80
2023/12/31 08:00:49;;;;;;;5.68;2.67;;;;;;;;;;5099376;28;20595;-80
2023/12/31 08:03:14;;;;;;;7.27;3.23;;;;;;;;;;5099116;28;20040;-80
2023/12/31 08:05:40;;;;;;;4.87;2.50;;;;;;;;;;5107682;28;20292;-79
2023/12/31 08:08:07;;;;;;;6.00;2.60;;;;;;;;;;5094080;28;20261;-79
2023/12/31 08:10:32;;;;;;;4.80;2.80;;;;;;;;;;5109289;28;20063;-79
2023/12/31 08:12:58;;;;;;;6.88;2.58;;;;;;;;;;5099186;28;20054;-80
2023/12/31 08:15:24;;;;;;;4.85;2.33;;;;;;;;;;5081360;28;20016;-80
2023/12/31 08:17:49;;;;;;;4.95;2.65;;;;;;;;;;5080415;28;20020;-80
2023/12/31 08:20:14;;;;;;;4.13;2.08;;;;;;;;;;5098767;28;20034;-80
2023/12/31 08:22:39;;;;;;;5.80;2.70;;;;;;;;;;5099011;28;20475;-81
2023/12/31 08:25:05;;;;;;;8.73;2.70;;;;;;;;;;5098786;28;20043;-80
2023/12/31 08:27:30;;;;;;;5.65;2.88;;;;;;;;;;5098562;28;20276;-80
2023/12/31 08:29:56;;;;;;;5.50;2.60;;;;;;;;;;5080649;28;20500;-81
2023/12/31 08:32:26;;;;;;;6.40;2.60;;;;;;;;;;5098492;28;20027;-80
2023/12/31 08:34:52;;;;;;;4.40;2.33;;;;;;;;;;5097930;28;20036;-81
2023/12/31 08:37:17;;;;;;;5.00;2.25;;;;;;;;;;5098624;28;20070;-81
2023/12/31 08:39:43;;;;;;;5.82;2.25;;;;;;;;;;5098092;28;20020;-80
2023/12/31 08:42:08;;;;;;;4.80;2.35;;;;;;;;;;5098296;28;20039;-79
2023/12/31 08:44:34;;;;;;;5.93;2.55;;;;;;;;;;5098707;28;20043;-81
2023/12/31 08:46:59;;;;;;;6.15;2.53;;;;;;;;;;5097876;28;20372;-81
2023/12/31 08:49:27;;;;;;;7.05;2.45;;;;;;;;;;5080256;28;20039;-81
2023/12/31 08:51:54;;;;;;;6.50;2.55;;;;;;;;;;5098608;28;20052;-81
2023/12/31 08:54:20;;;;;;;3.83;2.03;;;;;;;;;;5079221;28;20394;-81
2023/12/31 08:56:45;;;;;;;4.10;2.20;;;;;;;;;;5095061;28;20027;-81
2023/12/31 08:59:10;;;;;;;5.95;2.60;;;;;;;;;;5094822;28;20034;-81
2023/12/31 09:01:35;;;;;;;4.67;2.17;;;;;;;;;;5095943;28;20023;-81
2023/12/31 09:04:00;;;;;;;3.93;1.90;;;;;;;;;;5096466;28;20355;-80
2023/12/31 09:06:26;;;;;;;4.53;2.22;;;;;;;;;;5096877;28;20322;-80
2023/12/31 09:08:51;;;;;;;7.30;2.40;;;;;;;;;;5078847;28;20040;-80
2023/12/31 09:11:16;;;;;;;5.20;2.70;;;;;;;;;;5097875;28;20035;-80
2023/12/31 09:13:42;;;;;;;4.85;2.30;;;;;;;;;;5096963;28;20518;-81
2023/12/31 09:16:07;;;;;;;6.72;2.40;;;;;;;;;;5097376;28;20031;-81
2023/12/31 09:18:32;;;;;;;5.25;2.60;;;;;;;;;;5096964;28;20032;-80
2023/12/31 09:20:57;;;;;;;5.18;2.55;;;;;;;;;;5097482;28;20032;-80
2023/12/31 09:23:23;;;;;;;6.60;2.83;;;;;;;;;;5097327;28;20024;-80
2023/12/31 09:25:48;;;;;;;6.80;2.57;;;;;;;;;;5096979;28;20020;-81
2023/12/31 09:28:13;;;;;;;6.43;2.55;;;;;;;;;;5079798;28;20253;-81
2023/12/31 09:30:38;;;;;;;5.85;2.17;;;;;;;;;;5079360;28;20036;-80
2023/12/31 09:33:04;;;;;;;6.40;2.27;;;;;;;;;;5097313;28;20230;-80
2023/12/31 09:35:29;;;;;;;9.18;2.50;;;;;;;;;;5097315;28;20271;-80
2023/12/31 09:37:54;;;;;;;4.90;2.22;;;;;;;;;;5097113;28;20027;-79
2023/12/31 09:40:19;;;;;;;2.72;1.75;;;;;;;;;;5097460;28;20053;-81
2023/12/31 09:42:49;;;;;;;6.38;2.10;;;;;;;;;;5078896;28;20035;-81
2023/12/31 09:45:19;;;;;;;5.03;2.45;;;;;;;;;;5097675;28;20048;-80
2023/12/31 09:47:46;;;;;;;6.05;2.30;;;;;;;;;;5097565;28;21093;-80
2023/12/31 09:50:11;;;;;;;5.38;2.20;;;;;;;;;;5098355;28;20024;-80
2023/12/31 09:52:38;;;;;;;6.00;2.45;;;;;;;;;;5080248;28;20043;-80
2023/12/31 09:55:04;;;;;;;6.80;2.55;;;;;;;;;;5099099;28;20077;-81
2023/12/31 09:57:33;;;;;;;4.88;2.50;;;;;;;;;;5099023;28;20040;-79
2023/12/31 10:00:00;;;;;;;4.85;2.40;;;;;;;;;;5098244;28;20032;-80
2023/12/31 10:02:27;;;;;;;4.63;2.33;;;;;;;;;;5080658;28;20128;-82
2023/12/31 10:04:53;;;;;;;4.97;2.67;;;;;;;;;;5099080;28;20050;-79
2023/12/31 10:07:20;;;;;;;4.30;2.60;;;;;;;;;;5099414;28;20024;-80
2023/12/31 10:09:49;;;;;;;4.97;2.60;;;;;;;;;;5080933;28;20023;-81
2023/12/31 10:12:15;;;;;;;5.13;2.60;;;;;;;;;;5098333;28;20020;-81
2023/12/31 10:14:40;;;;;;;4.75;2.28;;;;;;;;;;5080147;28;20056;-79
2023/12/31 10:17:09;;;;;;;5.28;2.55;;;;;;;;;;5099011;28;20078;-80
2023/12/31 10:19:34;;;;;;;3.03;1.52;;;;;;;;;;5098283;28;20107;-80
2023/12/31 10:21:59;;;;;;;5.25;2.22;;;;;;;;;;5080486;28;20095;-81
2023/12/31 10:24:26;;;;;;;7.20;2.60;;;;;;;;;;5097400;28;20077;-80
2023/12/31 10:26:51;;;;;;;5.93;2.83;;;;;;;;;;5097797;28;20111;-81
2023/12/31 10:29:22;;;;;;;5.78;2.28;;;;;;;;;;5106016;22;20072;-80
2023/12/31 10:31:50;;;;;;;5.32;2.45;;;;;;;;;;5077303;28;20028;-81
2023/12/31 10:34:40;;;;;;;4.70;2.03;;;;;;;;;;5059596;28;20107;-80
2023/12/31 10:37:37;;;;;;;4.88;2.20;;;;;;;;;;5076314;28;20543;-80
2023/12/31 10:40:54;;;;;;;;;;;;;;;;;;;;;
2023/12/31 10:43:36;;;;;;;;;;;;;;;;;;;;;
2023/12/31 10:46:38;;;;;;;5.80;2.20;;;;;;;;;;5018011;28;20231;-80
2023/12/31 10:49:46;;;;;;;;;;;;;;;;;;;;;
2023/12/31 10:52:27;;;;;;;5.45;1.98;;;;;;;;;;5055621;28;20105;-81
2023/12/31 10:55:35;;;;;;;3.70;2.13;;;;;;;;;;5053458;28;20074;-79
2023/12/31 10:58:08;;;;;;;4.03;2.03;;;;;;;;;;5036666;28;20040;-80
2023/12/31 11:01:32;;;;;;;2.22;1.38;;;;;;;;;;5040103;28;20037;-80
2023/12/31 11:04:23;;;;;;;3.30;2.13;;;;;;;;;;5054839;28;20110;-80
2023/12/31 11:07:15;;;;;;;3.22;1.75;;;;;;;;;;5052370;28;20068;-82
2023/12/31 11:10:15;;;;;;;3.75;1.77;;;;;;;;;;5057794;28;20197;-80
2023/12/31 11:12:43;;;;;;;4.57;2.03;;;;;;;;;;5054296;28;20033;-81
2023/12/31 11:15:13;;;;;;;5.53;1.92;;;;;;;;;;5058484;28;20024;-81
2023/12/31 11:17:51;;;;;;;3.88;1.80;;;;;;;;;;5058324;28;20020;-81
2023/12/31 11:20:52;;;;;;;4.95;2.33;;;;;;;;;;5064483;28;20019;-79
2023/12/31 11:24:04;;;;;;;3.65;1.90;;;;;;;;;;5074088;28;20381;-80
2023/12/31 11:26:57;;;;;;;4.00;1.77;;;;;;;;;;5065902;28;20021;-80
2023/12/31 11:29:22;;;;;;;3.67;1.60;;;;;;;;;;5052614;28;20045;-83
2023/12/31 11:31:56;;;;;;;3.30;1.77;;;;;;;;;;5043129;28;20048;-81
2023/12/31 11:34:33;;;;;;;6.97;1.85;;;;;;;;;;5059959;28;20031;-79
2023/12/31 11:37:02;;;;;;;2.05;1.33;;;;;;;;;;5041187;28;20044;-81
2023/12/31 11:39:27;;;;;;;1.75;1.15;;;;;;;;;;5042421;28;20029;-81
2023/12/31 11:42:17;;;;;;;;;;;;;;;;;;;;;
2023/12/31 11:44:51;;;;;;;3.20;1.90;;;;;;;;;;5039932;28;20533;-81
2023/12/31 11:47:31;;;;;;;;;;;;;;;;;;;;;
2023/12/31 11:50:14;;;;;;;4.43;2.00;;;;;;;;;;5060438;28;20085;-80
2023/12/31 11:52:52;;;;;;;3.55;1.58;;;;;;;;;;5059809;28;20424;-81
2023/12/31 11:55:51;;;;;;;3.78;1.70;;;;;;;;;;5059809;28;20065;-80
2023/12/31 11:58:21;;;;;;;4.60;1.63;;;;;;;;;;5059469;28;20051;-80
2023/12/31 12:01:09;;;;;;;4.53;1.98;;;;;;;;;;5059305;28;20079;-80
2023/12/31 12:03:42;;;;;;;4.43;2.25;;;;;;;;;;5059722;28;20078;-80
2023/12/31 12:06:15;;;;;;;3.42;1.88;;;;;;;;;;5059391;28;20021;-81
2023/12/31 12:09:06;;;;;;;3.88;1.92;;;;;;;;;;5058846;28;20020;-80
2023/12/31 12:11:42;;;;;;;6.00;2.10;;;;;;;;;;5058108;28;20103;-80
2023/12/31 12:14:28;;;;;;;5.47;2.22;;;;;;;;;;5059695;28;20025;-81
2023/12/31 12:16:54;;;;;;;3.42;1.50;;;;;;;;;;5057542;28;20021;-79
2023/12/31 12:19:48;;;;;;;4.75;1.85;;;;;;;;;;5057419;28;20488;-80
2023/12/31 12:22:32;;;;;;;;;;;;;;;;;;;;;
2023/12/31 12:27:58;;;;;;;5.38;2.10;;;;;;;;;;5055355;28;20053;-80
2023/12/31 12:30:53;;;;;;;5.32;1.90;;;;;;;;;;5059210;28;20052;-79
2023/12/31 12:33:37;;;;;;;4.63;2.05;;;;;;;;;;5058520;28;20035;-81
2023/12/31 12:36:21;;;;;;;4.10;1.90;;;;;;;;;;5042040;28;20093;-80
2023/12/31 12:38:59;;;;;;;3.08;1.95;;;;;;;;;;5059659;28;20033;-80
2023/12/31 12:41:34;;;;;;;2.65;1.58;;;;;;;;;;5040250;28;20417;-80
2023/12/31 12:44:06;;;;;;;4.72;2.45;;;;;;;;;;5040767;28;20029;-80
2023/12/31 12:46:42;;;;;;;6.38;1.70;;;;;;;;;;5058745;28;20021;-79
2023/12/31 12:49:18;;;;;;;;;;;;;;;;;;;;;
2023/12/31 12:51:51;;;;;;;4.35;1.90;;;;;;;;;;5058509;28;20080;-81
2023/12/31 12:54:23;;;;;;;2.85;1.80;;;;;;;;;;5040923;28;20033;-81
2023/12/31 12:56:53;;;;;;;3.33;1.92;;;;;;;;;;5041642;28;20496;-81
2023/12/31 12:59:18;;;;;;;3.55;2.15;;;;;;;;;;5041121;28;20041;-81
2023/12/31 13:01:43;;;;;;;4.25;1.83;;;;;;;;;;5058737;28;20099;-82
2023/12/31 13:04:35;;;;;;;3.58;1.95;;;;;;;;;;5039305;28;20021;-79
2023/12/31 13:07:00;;;;;;;3.40;2.00;;;;;;;;;;5026359;28;20033;-79
2023/12/31 13:09:28;;;;;;;4.07;2.17;;;;;;;;;;5058488;28;20032;-78
2023/12/31 13:11:56;;;;;;;4.88;2.05;;;;;;;;;;5057033;28;20096;-78
2023/12/31 13:14:26;;;;;;;6.05;2.33;;;;;;;;;;5056541;28;20025;-81
2023/12/31 13:16:56;;;;;;;7.88;2.28;;;;;;;;;;5039303;28;20086;-80
2023/12/31 13:19:25;;;;;;;5.05;2.20;;;;;;;;;;5039132;28;20028;-80
2023/12/31 13:21:50;;;;;;;6.45;2.10;;;;;;;;;;5055993;28;20036;-80
2023/12/31 13:24:41;;;;;;;3.50;1.90;;;;;;;;;;5056951;28;20025;-80
2023/12/31 13:27:28;;;;;;;4.50;2.30;;;;;;;;;;5055448;28;20025;-78
2023/12/31 13:29:53;;;;;;;3.22;2.10;;;;;;;;;;5038210;28;20033;-81
2023/12/31 13:32:19;;;;;;;6.35;2.25;;;;;;;;;;5056750;28;20039;-80
2023/12/31 13:34:46;;;;;;;3.25;1.83;;;;;;;;;;5056504;28;20445;-80
2023/12/31 13:37:17;;;;;;;4.97;2.10;;;;;;;;;;5056684;28;20129;-80
2023/12/31 13:39:42;;;;;;;5.40;1.67;;;;;;;;;;5056586;28;20040;-79
2023/12/31 13:42:08;;;;;;;4.53;2.20;;;;;;;;;;5056868;28;20033;-80
2023/12/31 13:44:33;;;;;;;6.32;2.45;;;;;;;;;;5039706;28;20032;-80
2023/12/31 13:47:00;;;;;;;4.88;2.75;;;;;;;;;;5056652;28;20384;-80
2023/12/31 13:49:29;;;;;;;3.17;1.73;;;;;;;;;;5055570;28;20060;-80
2023/12/31 13:51:56;;;;;;;3.47;1.95;;;;;;;;;;5056537;28;20391;-79
2023/12/31 13:54:22;;;;;;;7.93;2.78;;;;;;;;;;5056753;28;20047;-80
2023/12/31 13:56:48;;;;;;;9.02;2.17;;;;;;;;;;5056024;28;20384;-80
2023/12/31 13:59:16;;;;;;;6.28;2.60;;;;;;;;;;5038687;28;20481;-80
2023/12/31 14:01:44;;;;;;;5.07;2.53;;;;;;;;;;5055732;28;20036;-80
2023/12/31 14:04:09;;;;;;;6.20;2.80;;;;;;;;;;5038254;28;20022;-80
2023/12/31 14:06:44;;;;;;;8.55;2.78;;;;;;;;;;5056395;28;20430;-80
2023/12/31 14:09:13;;;;;;;4.40;2.45;;;;;;;;;;5037331;28;20524;-79
2023/12/31 14:11:38;;;;;;;4.93;2.70;;;;;;;;;;5038653;28;20021;-80
2023/12/31 14:14:04;;;;;;;3.67;2.30;;;;;;;;;;5055941;28;20154;-80
2023/12/31 14:16:32;;;;;;;5.93;3.30;;;;;;;;;;5055929;28;20048;-80
2023/12/31 14:19:09;;;;;;;6.25;3.13;;;;;;;;;;5055847;28;20088;-80
2023/12/31 14:21:42;;;;;;;6.63;3.15;;;;;;;;;;5056501;28;20035;-80
2023/12/31 14:24:09;;;;;;;5.18;3.20;;;;;;;;;;5056368;28;20407;-80
2023/12/31 14:26:38;;;;;;;6.18;3.15;;;;;;;;;;5056154;28;20029;-80
2023/12/31 14:29:05;;;;;;;6.80;3.15;;;;;;;;;;5055981;28;20028;-80
2023/12/31 14:31:31;;;;;;;7.85;2.88;;;;;;;;;;5056549;28;20444;-81
2023/12/31 14:33:56;;;;;;;5.18;3.22;;;;;;;;;;5041115;28;20025;-80
2023/12/31 14:36:39;;;;;;;6.78;2.75;;;;;;;;;;5069090;28;20056;-80
2023/12/31 14:39:07;;;;;;;6.32;3.60;;;;;;;;;;5073965;28;20084;-79
2023/12/31 14:41:35;;;;;;;6.82;3.42;;;;;;;;;;5051706;28;20035;-80
2023/12/31 14:44:27;;;;;;;6.85;3.33;;;;;;;;;;5042145;28;20044;-80
2023/12/31 14:47:28;;;;;;;;;;;;;;;;;;;;;
2023/12/31 14:49:59;;;;;;;7.68;3.63;;;;;;;;;;5055752;28;20093;-81
2023/12/31 14:52:30;;;;;;;7.00;2.90;;;;;;;;;;5060697;28;20112;-81
2023/12/31 14:55:04;;;;;;;8.45;4.75;;;;;;;;;;5059726;28;20025;-79
2023/12/31 15:00:28;;;;;;;6.57;3.77;;;;;;;;;;5058569;28;20037;-80
2023/12/31 15:02:53;;;;;;;5.47;3.45;;;;;;;;;;5060478;28;20341;-81
2023/12/31 15:05:24;;;;;;;5.72;3.28;;;;;;;;;;5060377;28;20488;-80